createdAt,value
2023-04-01T00:00:33.735Z,96806.16
2023-04-01T00:01:36.755Z,96805.41
2023-04-01T00:02:39.613Z,96803.25
2023-04-01T00:03:42.643Z,96790.66
2023-04-01T00:04:45.572Z,96785.31
2023-04-01T00:05:48.763Z,96794.66
2023-04-01T00:06:52.843Z,96789.16
2023-04-01T00:07:55.808Z,96803.84
2023-04-01T00:08:58.619Z,96800.19
2023-04-01T00:10:01.782Z,96801.25
2023-04-01T00:11:04.685Z,96805.88
2023-04-01T00:12:07.555Z,96801.56
2023-04-01T00:13:10.525Z,96810.00
2023-04-01T00:14:13.307Z,96804.03
2023-04-01T00:15:16.740Z,96800.47
2023-04-01T00:16:21.603Z,96800.94
2023-04-01T00:17:24.976Z,96794.66
2023-04-01T00:18:27.823Z,96789.28
2023-04-01T00:19:30.821Z,96793.13
2023-04-01T00:20:48.533Z,96791.00
2023-04-01T00:21:51.267Z,96796.81
2023-04-01T00:22:53.976Z,96796.78
2023-04-01T00:23:57.083Z,96799.25
2023-04-01T00:24:59.808Z,96789.91
2023-04-01T00:26:05.090Z,96793.13
2023-04-01T00:27:09.454Z,96784.84
2023-04-01T00:28:12.384Z,96796.03
2023-04-01T00:29:15.262Z,96796.66
2023-04-01T00:30:18.918Z,96796.81
2023-04-01T00:31:22.078Z,96797.72
2023-04-01T00:32:25.588Z,96792.84
2023-04-01T00:33:28.793Z,96796.66
2023-04-01T00:34:31.869Z,96793.13
2023-04-01T00:35:34.890Z,96796.34
2023-04-01T00:36:38.438Z,96789.16
2023-04-01T00:37:41.384Z,96783.78
2023-04-01T00:38:45.034Z,96789.75
2023-04-01T00:39:48.274Z,96783.47
2023-04-01T00:40:52.299Z,96783.78
2023-04-01T00:41:55.164Z,96784.41
2023-04-01T00:42:58.566Z,96778.41
2023-04-01T00:44:23.954Z,96776.53
2023-04-01T00:45:36.599Z,96778.72
2023-04-01T00:46:39.603Z,96781.47
2023-04-01T00:47:42.504Z,96774.41
2023-04-01T00:48:51.848Z,96781.00
2023-04-01T00:49:56.293Z,96789.12
2023-04-01T00:51:07.099Z,96786.03
2023-04-01T00:52:12.534Z,96781.78
2023-04-01T00:53:16.107Z,96778.69
2023-04-01T00:54:22.115Z,96780.22
2023-04-01T00:55:27.313Z,96780.84
2023-04-01T00:56:38.249Z,96777.00
2023-04-01T00:57:43.667Z,96778.84
2023-04-01T00:58:51.720Z,96778.72
2023-04-01T00:59:56.127Z,96786.22
2023-04-01T01:01:01.270Z,96790.38
2023-04-01T01:02:07.604Z,96787.91
2023-04-01T01:03:10.827Z,96783.47
2023-04-01T01:04:27.758Z,96780.56
2023-04-01T01:06:26.481Z,96779.63
2023-04-01T01:07:42.562Z,96783.94
2023-04-01T01:09:13.084Z,96783.63
2023-04-01T01:10:25.045Z,96788.06
2023-04-01T01:11:43.709Z,96782.38
2023-04-01T01:13:16.610Z,96774.25
2023-04-01T01:14:24.628Z,96780.84
2023-04-01T01:15:47.671Z,96774.56
2023-04-01T01:17:01.210Z,96779.16
2023-04-01T01:18:55.718Z,96776.41
2023-04-01T01:20:31.074Z,96773.19
2023-04-01T01:21:36.549Z,96767.19
2023-04-01T01:22:54.857Z,96776.56
2023-04-01T01:24:29.856Z,96772.88
2023-04-01T01:25:54.427Z,96771.81
2023-04-01T01:27:03.971Z,96768.59
2023-04-01T01:28:22.063Z,96769.19
2023-04-01T01:30:00.267Z,96775.19
2023-04-01T01:31:27.786Z,96776.72
2023-04-01T01:32:49.479Z,96773.03
2023-04-01T01:33:58.151Z,96775.97
2023-04-01T01:35:12.611Z,96779.81
2023-04-01T01:36:17.797Z,96779.63
2023-04-01T01:37:23.779Z,96777.47
2023-04-01T01:38:32.353Z,96772.59
2023-04-01T01:39:36.620Z,96782.09
2023-04-01T01:40:42.757Z,96785.16
2023-04-01T01:41:50.563Z,96768.16
2023-04-01T01:42:57.998Z,96774.88
2023-04-01T01:44:02.979Z,96778.72
2023-04-01T01:45:09.331Z,96772.28
2023-04-01T01:46:22.232Z,96770.91
2023-04-01T01:47:28.836Z,96775.16
2023-04-01T01:48:32.937Z,96771.97
2023-04-01T01:49:37.986Z,96768.59
2023-04-01T01:50:42.509Z,96773.34
2023-04-01T01:51:45.606Z,96768.13
2023-04-01T01:52:48.432Z,96768.59
2023-04-01T01:53:51.429Z,96773.50
2023-04-01T01:54:56.715Z,96770.13
2023-04-01T01:55:59.608Z,96775.34
2023-04-01T01:57:12.310Z,96763.22
2023-04-01T01:58:22.088Z,96774.72
2023-04-01T01:59:28.282Z,96775.19
2023-04-01T02:00:31.331Z,96775.81
2023-04-01T02:01:41.749Z,96773.03
2023-04-01T02:02:47.946Z,96776.87
2023-04-01T02:03:52.383Z,96771.38
2023-04-01T02:04:55.943Z,96763.22
2023-04-01T02:06:02.073Z,96766.28
2023-04-01T02:07:10.314Z,96775.50
2023-04-01T02:08:23.292Z,96768.44
2023-04-01T02:09:26.564Z,96767.38
2023-04-01T02:10:32.610Z,96767.38
2023-04-01T02:11:36.437Z,96768.28
2023-04-01T02:12:40.859Z,96763.53
2023-04-01T02:13:53.884Z,96766.91
2023-04-01T02:15:01.228Z,96754.78
2023-04-01T02:16:12.747Z,96770.59
2023-04-01T02:17:21.755Z,96762.78
2023-04-01T02:18:25.671Z,96759.25
2023-04-01T02:19:57.339Z,96758.78
2023-04-01T02:21:01.490Z,96767.81
2023-04-01T02:22:09.038Z,96746.06
2023-04-01T02:23:12.167Z,96751.41
2023-04-01T02:24:17.081Z,96756.34
2023-04-01T02:25:26.242Z,96765.69
2023-04-01T02:26:29.384Z,96750.38
2023-04-01T02:27:32.980Z,96745.28
2023-04-01T02:28:39.847Z,96739.00
2023-04-01T02:29:42.841Z,96739.63
2023-04-01T02:30:46.456Z,96741.91
2023-04-01T02:31:51.819Z,96750.03
2023-04-01T02:32:56.588Z,96749.56
2023-04-01T02:34:00.145Z,96745.56
2023-04-01T02:35:07.138Z,96740.22
2023-04-01T02:36:17.565Z,96740.06
2023-04-01T02:37:21.306Z,96745.59
2023-04-01T02:38:24.551Z,96740.53
2023-04-01T02:39:27.552Z,96736.53
2023-04-01T02:40:31.020Z,96732.25
2023-04-01T02:41:41.074Z,96735.00
2023-04-01T02:42:44.690Z,96731.31
2023-04-01T02:43:47.523Z,96733.63
2023-04-01T02:44:50.495Z,96738.37
2023-04-01T02:45:53.554Z,96728.91
2023-04-01T02:46:56.420Z,96730.72
2023-04-01T02:47:59.336Z,96738.09
2023-04-01T02:49:02.877Z,96735.34
2023-04-01T02:50:07.320Z,96743.56
2023-04-01T02:51:10.620Z,96743.28
2023-04-01T02:52:13.371Z,96747.25
2023-04-01T02:53:17.231Z,96747.09
2023-04-01T02:54:21.435Z,96749.09
2023-04-01T02:55:24.304Z,96751.84
2023-04-01T02:56:27.778Z,96751.22
2023-04-01T02:57:30.923Z,96744.50
2023-04-01T02:58:34.187Z,96745.41
2023-04-01T02:59:37.111Z,96746.16
2023-04-01T03:00:40.559Z,96754.59
2023-04-01T03:01:43.418Z,96754.00
2023-04-01T03:02:46.556Z,96743.75
2023-04-01T03:03:49.492Z,96746.19
2023-04-01T03:04:52.443Z,96749.25
2023-04-01T03:05:57.743Z,96752.78
2023-04-01T03:07:01.151Z,96750.50
2023-04-01T03:08:04.415Z,96745.75
2023-04-01T03:09:07.343Z,96749.56
2023-04-01T03:10:11.083Z,96754.50
2023-04-01T03:11:14.748Z,96751.56
2023-04-01T03:12:17.675Z,96748.97
2023-04-01T03:13:20.499Z,96741.47
2023-04-01T03:14:23.262Z,96743.91
2023-04-01T03:15:26.225Z,96743.16
2023-04-01T03:16:29.178Z,96736.84
2023-04-01T03:17:32.474Z,96742.38
2023-04-01T03:18:35.682Z,96748.47
2023-04-01T03:19:38.536Z,96739.59
2023-04-01T03:20:41.599Z,96752.16
2023-04-01T03:21:44.505Z,96746.78
2023-04-01T03:22:48.005Z,96747.09
2023-04-01T03:23:51.338Z,96744.19
2023-04-01T03:24:54.289Z,96762.59
2023-04-01T03:25:57.291Z,96764.72
2023-04-01T03:27:00.223Z,96760.56
2023-04-01T03:28:03.434Z,96765.16
2023-04-01T03:29:06.462Z,96763.31
2023-04-01T03:30:10.763Z,96763.31
2023-04-01T03:31:14.030Z,96756.22
2023-04-01T03:32:16.921Z,96762.03
2023-04-01T03:33:19.730Z,96761.31
2023-04-01T03:34:22.590Z,96763.78
2023-04-01T03:35:25.673Z,96770.34
2023-04-01T03:36:28.812Z,96769.59
2023-04-01T03:37:32.246Z,96770.78
2023-04-01T03:38:36.598Z,96767.88
2023-04-01T03:39:39.660Z,96761.63
2023-04-01T03:40:44.516Z,96758.41
2023-04-01T03:41:48.055Z,96771.72
2023-04-01T03:42:51.688Z,96766.16
2023-04-01T03:43:55.159Z,96775.50
2023-04-01T03:44:58.039Z,96772.19
2023-04-01T03:46:01.218Z,96777.13
2023-04-01T03:47:04.518Z,96782.38
2023-04-01T03:48:07.565Z,96779.28
2023-04-01T03:49:14.183Z,96780.56
2023-04-01T03:50:18.000Z,96779.75
2023-04-01T03:51:20.932Z,96778.56
2023-04-01T03:52:24.399Z,96783.28
2023-04-01T03:53:28.267Z,96776.84
2023-04-01T03:54:31.215Z,96775.28
2023-04-01T03:55:34.420Z,96778.81
2023-04-01T03:56:38.285Z,96781.69
2023-04-01T03:57:41.282Z,96783.53
2023-04-01T03:58:44.174Z,96783.38
2023-04-01T03:59:47.122Z,96785.97
2023-04-01T04:00:50.102Z,96782.81
2023-04-01T04:01:52.887Z,96784.37
2023-04-01T04:02:58.134Z,96792.47
2023-04-01T04:04:01.772Z,96797.97
2023-04-01T04:05:04.952Z,96791.84
2023-04-01T04:06:12.444Z,96795.09
2023-04-01T04:07:15.277Z,96788.19
2023-04-01T04:08:18.710Z,96787.72
2023-04-01T04:09:21.860Z,96789.44
2023-04-01T04:10:26.236Z,96787.16
2023-04-01T04:11:29.069Z,96791.53
2023-04-01T04:12:32.212Z,96781.53
2023-04-01T04:13:35.174Z,96783.41
2023-04-01T04:14:38.051Z,96779.56
2023-04-01T04:15:41.017Z,96782.13
2023-04-01T04:16:44.190Z,96783.53
2023-04-01T04:17:47.611Z,96776.81
2023-04-01T04:18:50.560Z,96778.00
2023-04-01T04:19:53.748Z,96777.53
2023-04-01T04:20:56.880Z,96782.28
2023-04-01T04:22:02.674Z,96790.09
2023-04-01T04:23:05.596Z,96787.28
2023-04-01T04:24:09.108Z,96786.38
2023-04-01T04:25:12.051Z,96794.94
2023-04-01T04:26:16.315Z,96783.16
2023-04-01T04:27:19.277Z,96784.47
2023-04-01T04:28:22.394Z,96788.62
2023-04-01T04:29:25.570Z,96791.56
2023-04-01T04:30:28.324Z,96784.28
2023-04-01T04:31:31.475Z,96781.69
2023-04-01T04:32:34.548Z,96784.87
2023-04-01T04:33:37.436Z,96777.13
2023-04-01T04:34:40.258Z,96774.16
2023-04-01T04:35:43.116Z,96778.44
2023-04-01T04:36:46.118Z,96770.78
2023-04-01T04:37:48.935Z,96780.59
2023-04-01T04:38:51.993Z,96777.72
2023-04-01T04:39:54.875Z,96779.38
2023-04-01T04:40:57.768Z,96773.84
2023-04-01T04:42:00.617Z,96775.69
2023-04-01T04:43:03.764Z,96778.03
2023-04-01T04:44:06.705Z,96767.31
2023-04-01T04:45:09.928Z,96767.13
2023-04-01T04:46:12.801Z,96768.16
2023-04-01T04:47:16.127Z,96774.28
2023-04-01T04:48:22.271Z,96776.28
2023-04-01T04:49:25.267Z,96782.88
2023-04-01T04:50:28.130Z,96771.25
2023-04-01T04:51:31.302Z,96777.84
2023-04-01T04:52:34.196Z,96776.50
2023-04-01T04:53:37.107Z,96778.56
2023-04-01T04:54:40.106Z,96774.31
2023-04-01T04:55:47.899Z,96778.00
2023-04-01T04:56:53.516Z,96770.25
2023-04-01T04:57:56.802Z,96778.03
2023-04-01T04:59:00.296Z,96777.28
2023-04-01T05:00:04.610Z,96777.91
2023-04-01T05:01:13.426Z,96770.41
2023-04-01T05:02:16.567Z,96768.84
2023-04-01T05:03:19.615Z,96778.47
2023-04-01T05:04:22.494Z,96767.75
2023-04-01T05:05:25.369Z,96771.75
2023-04-01T05:06:30.856Z,96768.87
2023-04-01T05:07:35.072Z,96771.34
2023-04-01T05:08:40.155Z,96773.03
2023-04-01T05:09:43.201Z,96781.00
2023-04-01T05:10:46.685Z,96778.25
2023-04-01T05:11:49.747Z,96781.78
2023-04-01T05:12:52.609Z,96774.47
2023-04-01T05:13:55.488Z,96778.78
2023-04-01T05:14:58.370Z,96784.87
2023-04-01T05:16:01.262Z,96778.00
2023-04-01T05:17:04.151Z,96782.63
2023-04-01T05:18:07.356Z,96787.22
2023-04-01T05:19:10.372Z,96783.13
2023-04-01T05:20:14.828Z,96777.91
2023-04-01T05:21:17.844Z,96780.84
2023-04-01T05:22:21.277Z,96779.56
2023-04-01T05:23:24.210Z,96774.06
2023-04-01T05:24:27.049Z,96776.69
2023-04-01T05:25:30.139Z,96788.03
2023-04-01T05:26:33.897Z,96774.78
2023-04-01T05:27:36.873Z,96785.41
2023-04-01T05:28:39.840Z,96784.50
2023-04-01T05:29:42.865Z,96782.38
2023-04-01T05:30:46.029Z,96777.03
2023-04-01T05:31:49.083Z,96779.03
2023-04-01T05:32:52.065Z,96790.03
2023-04-01T05:33:55.544Z,96785.91
2023-04-01T05:34:58.355Z,96791.59
2023-04-01T05:36:12.586Z,96787.00
2023-04-01T05:37:15.579Z,96787.63
2023-04-01T05:38:18.373Z,96781.03
2023-04-01T05:39:21.603Z,96792.97
2023-04-01T05:40:24.483Z,96794.97
2023-04-01T05:41:28.093Z,96792.81
2023-04-01T05:42:30.963Z,96799.87
2023-04-01T05:43:36.975Z,96791.91
2023-04-01T05:44:39.912Z,96797.88
2023-04-01T05:45:42.686Z,96789.28
2023-04-01T05:46:45.763Z,96788.81
2023-04-01T05:47:48.827Z,96798.94
2023-04-01T05:48:51.674Z,96794.16
2023-04-01T05:49:56.834Z,96792.16
2023-04-01T05:50:59.674Z,96789.91
2023-04-01T05:52:02.507Z,96787.91
2023-04-01T05:53:05.562Z,96792.78
2023-04-01T05:54:08.496Z,96785.91
2023-04-01T05:55:11.287Z,96795.88
2023-04-01T05:56:14.345Z,96789.72
2023-04-01T05:57:17.207Z,96788.50
2023-04-01T05:58:20.165Z,96782.16
2023-04-01T05:59:23.154Z,96785.37
2023-04-01T06:00:26.048Z,96787.59
2023-04-01T06:01:28.979Z,96787.56
2023-04-01T06:02:31.981Z,96783.47
2023-04-01T06:03:36.095Z,96787.31
2023-04-01T06:04:41.620Z,96789.09
2023-04-01T06:05:45.405Z,96778.81
2023-04-01T06:06:48.480Z,96785.13
2023-04-01T06:07:59.816Z,96790.81
2023-04-01T06:09:28.465Z,96784.81
2023-04-01T06:10:57.494Z,96778.66
2023-04-01T06:12:22.432Z,96784.09
2023-04-01T06:13:37.847Z,96781.78
2023-04-01T06:15:19.988Z,96784.25
2023-04-01T06:16:37.733Z,96781.44
2023-04-01T06:17:55.807Z,96771.84
2023-04-01T06:19:24.013Z,96778.88
2023-04-01T06:21:01.633Z,96776.91
2023-04-01T06:22:29.168Z,96775.78
2023-04-01T06:24:17.055Z,96777.56
2023-04-01T06:25:33.192Z,96777.69
2023-04-01T06:26:48.182Z,96776.53
2023-04-01T06:27:54.153Z,96772.97
2023-04-01T06:29:30.609Z,96780.78
2023-04-01T06:30:59.052Z,96777.28
2023-04-01T06:32:07.963Z,96782.41
2023-04-01T06:33:34.012Z,96782.22
2023-04-01T06:34:39.472Z,96785.44
2023-04-01T06:36:04.362Z,96787.34
2023-04-01T06:37:09.999Z,96788.91
2023-04-01T06:38:23.620Z,96791.34
2023-04-01T06:39:44.708Z,96788.84
2023-04-01T06:40:56.412Z,96783.31
2023-04-01T06:42:17.351Z,96786.81
2023-04-01T06:43:26.534Z,96791.53
2023-04-01T06:44:58.102Z,96789.84
2023-04-01T06:46:30.900Z,96785.53
2023-04-01T06:47:52.376Z,96786.50
2023-04-01T06:49:37.432Z,96790.41
2023-04-01T06:50:53.708Z,96794.28
2023-04-01T06:52:05.771Z,96782.28
2023-04-01T06:53:38.080Z,96789.47
2023-04-01T06:54:57.034Z,96797.50
2023-04-01T06:56:12.066Z,96794.56
2023-04-01T06:57:20.807Z,96795.56
2023-04-01T06:58:36.286Z,96798.94
2023-04-01T06:59:39.696Z,96802.72
2023-04-01T07:00:45.959Z,96797.72
2023-04-01T07:02:13.832Z,96795.66
2023-04-01T07:03:37.601Z,96794.28
2023-04-01T07:04:45.851Z,96795.62
2023-04-01T07:05:49.550Z,96806.22
2023-04-01T07:06:56.593Z,96794.44
2023-04-01T07:08:02.997Z,96795.06
2023-04-01T07:09:13.573Z,96791.13
2023-04-01T07:10:21.554Z,96795.06
2023-04-01T07:11:32.916Z,96795.69
2023-04-01T07:12:45.805Z,96793.13
2023-04-01T07:14:00.136Z,96797.19
2023-04-01T07:15:13.384Z,96791.09
2023-04-01T07:16:33.236Z,96790.78
2023-04-01T07:17:40.739Z,96797.22
2023-04-01T07:18:54.142Z,96794.47
2023-04-01T07:20:18.463Z,96796.75
2023-04-01T07:21:31.886Z,96794.66
2023-04-01T07:22:39.525Z,96799.41
2023-04-01T07:23:47.133Z,96796.56
2023-04-01T07:24:50.511Z,96799.13
2023-04-01T07:25:59.743Z,96801.94
2023-04-01T07:27:02.841Z,96799.22
2023-04-01T07:28:12.311Z,96807.84
2023-04-01T07:29:16.860Z,96803.03
2023-04-01T07:30:22.717Z,96811.78
2023-04-01T07:31:44.214Z,96805.56
2023-04-01T07:33:17.013Z,96808.06
2023-04-01T07:34:22.871Z,96807.16
2023-04-01T07:35:52.090Z,96805.31
2023-04-01T07:37:06.290Z,96807.13
2023-04-01T07:38:22.415Z,96802.47
2023-04-01T07:39:56.296Z,96803.25
2023-04-01T07:41:08.156Z,96798.44
2023-04-01T07:42:25.942Z,96792.22
2023-04-01T07:44:09.812Z,96796.66
2023-04-01T07:45:28.804Z,96793.25
2023-04-01T07:47:10.479Z,96795.25
2023-04-01T07:48:45.679Z,96790.56
2023-04-01T07:50:00.510Z,96783.72
2023-04-01T07:51:16.352Z,96800.16
2023-04-01T07:52:55.242Z,96786.59
2023-04-01T07:54:07.094Z,96791.59
2023-04-01T07:55:41.580Z,96796.25
2023-04-01T07:57:07.363Z,96792.00
2023-04-01T07:58:35.576Z,96789.28
2023-04-01T07:59:41.715Z,96804.88
2023-04-01T08:00:47.158Z,96803.16
2023-04-01T08:02:13.383Z,96792.06
2023-04-01T08:03:25.701Z,96804.53
2023-04-01T08:04:50.270Z,96801.94
2023-04-01T08:06:01.571Z,96806.41
2023-04-01T08:07:19.414Z,96804.06
2023-04-01T08:08:59.344Z,96809.09
2023-04-01T08:10:13.869Z,96808.03
2023-04-01T08:11:52.051Z,96815.25
2023-04-01T08:13:08.508Z,96808.31
2023-04-01T08:14:30.192Z,96808.66
2023-04-01T08:15:51.426Z,96808.81
2023-04-01T08:17:32.435Z,96806.28
2023-04-01T08:18:44.444Z,96806.16
2023-04-01T08:19:53.219Z,96810.41
2023-04-01T08:21:24.940Z,96798.28
2023-04-01T08:22:32.200Z,96812.94
2023-04-01T08:23:39.982Z,96816.50
2023-04-01T08:24:48.126Z,96808.19
2023-04-01T08:25:51.251Z,96808.25
2023-04-01T08:27:00.543Z,96805.47
2023-04-01T08:28:18.869Z,96810.66
2023-04-01T08:29:44.230Z,96812.63
2023-04-01T08:31:32.500Z,96806.69
2023-04-01T08:32:44.513Z,96811.97
2023-04-01T08:33:49.032Z,96808.37
2023-04-01T08:35:13.195Z,96815.91
2023-04-01T08:36:42.642Z,96809.63
2023-04-01T08:37:46.943Z,96809.69
2023-04-01T08:38:57.519Z,96810.72
2023-04-01T08:40:14.221Z,96812.41
2023-04-01T08:41:50.037Z,96812.09
2023-04-01T08:43:57.449Z,96813.00
2023-04-01T08:45:31.570Z,96814.50
2023-04-01T08:46:46.812Z,96803.00
2023-04-01T08:47:57.919Z,96820.66
2023-04-01T08:49:06.362Z,96811.59
2023-04-01T08:50:18.199Z,96812.53
2023-04-01T08:51:37.001Z,96805.84
2023-04-01T08:53:27.653Z,96813.44
2023-04-01T08:54:41.101Z,96807.78
2023-04-01T08:56:07.368Z,96807.34
2023-04-01T08:57:31.634Z,96809.06
2023-04-01T08:59:11.059Z,96809.13
2023-04-01T09:00:33.697Z,96808.69
2023-04-01T09:01:58.246Z,96820.94
2023-04-01T09:03:10.977Z,96813.19
2023-04-01T09:04:21.269Z,96813.06
2023-04-01T09:06:01.098Z,96819.59
2023-04-01T09:07:48.580Z,96813.34
2023-04-01T09:09:18.968Z,96807.97
2023-04-01T09:10:59.504Z,96814.25
2023-04-01T09:12:09.725Z,96816.22
2023-04-01T09:13:15.653Z,96813.91
2023-04-01T09:14:24.219Z,96809.22
2023-04-01T09:15:55.363Z,96808.63
2023-04-01T09:17:45.855Z,96815.81
2023-04-01T09:19:05.849Z,96800.06
2023-04-01T09:20:18.999Z,96813.72
2023-04-01T09:21:40.522Z,96817.16
2023-04-01T09:22:52.873Z,96816.03
2023-04-01T09:24:17.632Z,96818.19
2023-04-01T09:25:34.633Z,96821.28
2023-04-01T09:27:03.201Z,96815.41
2023-04-01T09:28:18.823Z,96807.97
2023-04-01T09:29:45.212Z,96819.81
2023-04-01T09:31:06.480Z,96811.84
2023-04-01T09:32:27.633Z,96815.34
2023-04-01T09:34:08.250Z,96811.84
2023-04-01T09:35:49.703Z,96807.84
2023-04-01T09:37:14.435Z,96799.19
2023-04-01T09:38:43.676Z,96806.47
2023-04-01T09:39:55.735Z,96811.31
2023-04-01T09:40:59.863Z,96807.28
2023-04-01T09:42:16.829Z,96805.66
2023-04-01T09:43:31.952Z,96815.91
2023-04-01T09:44:44.571Z,96812.03
2023-04-01T09:45:59.989Z,96816.66
2023-04-01T09:47:29.609Z,96820.81
2023-04-01T09:48:52.146Z,96810.56
2023-04-01T09:50:21.667Z,96809.25
2023-04-01T09:52:02.185Z,96817.66
2023-04-01T09:53:21.008Z,96813.72
2023-04-01T09:54:23.997Z,96814.16
2023-04-01T09:55:51.950Z,96819.16
2023-04-01T09:57:25.306Z,96811.62
2023-04-01T09:58:46.566Z,96801.53
2023-04-01T10:00:22.380Z,96814.44
2023-04-01T10:01:25.150Z,96820.34
2023-04-01T10:03:05.638Z,96814.66
2023-04-01T10:04:48.587Z,96822.00
2023-04-01T10:06:19.223Z,96815.06
2023-04-01T10:07:37.279Z,96812.44
2023-04-01T10:09:13.910Z,96811.38
2023-04-01T10:10:20.054Z,96825.59
2023-04-01T10:11:59.648Z,96827.16
2023-04-01T10:13:34.004Z,96821.25
2023-04-01T10:15:10.217Z,96819.81
2023-04-01T10:16:39.076Z,96816.94
2023-04-01T10:18:10.129Z,96827.78
2023-04-01T10:19:12.915Z,96825.19
2023-04-01T10:20:42.500Z,96817.84
2023-04-01T10:22:22.555Z,96823.84
2023-04-01T10:23:53.347Z,96828.09
2023-04-01T10:25:17.509Z,96834.50
2023-04-01T10:26:20.307Z,96823.94
2023-04-01T10:28:02.081Z,96825.47
2023-04-01T10:29:16.829Z,96821.59
2023-04-01T10:30:35.068Z,96824.41
2023-04-01T10:31:59.392Z,96817.94
2023-04-01T10:33:55.268Z,96816.88
2023-04-01T10:35:36.268Z,96819.44
2023-04-01T10:36:42.138Z,96819.59
2023-04-01T10:38:42.593Z,96816.88
2023-04-01T10:40:19.113Z,96817.50
2023-04-01T10:41:41.539Z,96818.19
2023-04-01T10:43:06.354Z,96812.25
2023-04-01T10:44:37.255Z,96812.91
2023-04-01T10:46:07.861Z,96816.75
2023-04-01T10:47:19.868Z,96816.16
2023-04-01T10:49:05.382Z,96809.47
2023-04-01T10:50:49.692Z,96806.09
2023-04-01T10:52:19.763Z,96808.47
2023-04-01T10:53:44.353Z,96803.38
2023-04-01T10:54:49.122Z,96799.37
2023-04-01T10:56:16.841Z,96808.53
2023-04-01T10:57:57.896Z,96817.34
2023-04-01T10:59:16.669Z,96813.31
2023-04-01T11:00:46.418Z,96800.87
2023-04-01T11:02:11.770Z,96806.66
2023-04-01T11:03:46.785Z,96818.44
2023-04-01T11:05:30.121Z,96816.47
2023-04-01T11:07:03.714Z,96804.72
2023-04-01T11:08:33.837Z,96809.50
2023-04-01T11:09:45.952Z,96804.59
2023-04-01T11:11:28.866Z,96803.59
2023-04-01T11:12:53.687Z,96797.50
2023-04-01T11:14:17.562Z,96804.91
2023-04-01T11:15:41.153Z,96796.94
2023-04-01T11:17:27.585Z,96802.91
2023-04-01T11:18:52.699Z,96801.34
2023-04-01T11:20:17.960Z,96800.06
2023-04-01T11:21:26.947Z,96801.69
2023-04-01T11:22:41.885Z,96800.91
2023-04-01T11:24:03.969Z,96813.44
2023-04-01T11:25:41.128Z,96800.13
2023-04-01T11:27:18.851Z,96805.88
2023-04-01T11:28:51.150Z,96806.03
2023-04-01T11:30:15.103Z,96802.13
2023-04-01T11:31:36.699Z,96797.91
2023-04-01T11:33:13.438Z,96794.66
2023-04-01T11:34:47.341Z,96802.78
2023-04-01T11:36:07.906Z,96801.66
2023-04-01T11:37:32.240Z,96793.97
2023-04-01T11:38:56.978Z,96800.66
2023-04-01T11:40:05.728Z,96809.44
2023-04-01T11:41:27.480Z,96811.38
2023-04-01T11:43:03.469Z,96810.03
2023-04-01T11:44:21.394Z,96814.13
2023-04-01T11:45:48.857Z,96803.72
2023-04-01T11:47:23.947Z,96809.06
2023-04-01T11:48:39.341Z,96814.56
2023-04-01T11:50:17.426Z,96816.69
2023-04-01T11:51:41.197Z,96819.88
2023-04-01T11:52:56.187Z,96818.91
2023-04-01T11:54:45.418Z,96821.88
2023-04-01T11:56:02.948Z,96825.94
2023-04-01T11:57:14.969Z,96829.38
2023-04-01T11:58:29.569Z,96820.09
2023-04-01T12:00:11.991Z,96818.44
2023-04-01T12:01:17.792Z,96816.69
2023-04-01T12:02:52.064Z,96815.47
2023-04-01T12:04:27.226Z,96811.62
2023-04-01T12:05:42.996Z,96816.44
2023-04-01T12:07:43.880Z,96822.09
2023-04-01T12:09:13.006Z,96814.37
2023-04-01T12:10:17.239Z,96811.03
2023-04-01T12:12:14.077Z,96818.66
2023-04-01T12:13:26.234Z,96813.25
2023-04-01T12:14:44.626Z,96812.59
2023-04-01T12:15:50.778Z,96810.09
2023-04-01T12:17:10.952Z,96811.31
2023-04-01T12:18:32.323Z,96816.06
2023-04-01T12:19:46.432Z,96811.38
2023-04-01T12:21:19.962Z,96811.50
2023-04-01T12:22:57.758Z,96824.44
2023-04-01T12:24:19.130Z,96820.44
2023-04-01T12:25:25.064Z,96819.75
2023-04-01T12:27:04.509Z,96827.63
2023-04-01T12:28:18.843Z,96825.53
2023-04-01T12:29:43.791Z,96816.94
2023-04-01T12:30:52.384Z,96821.75
2023-04-01T12:32:21.710Z,96818.94
2023-04-01T12:33:37.275Z,96831.91
2023-04-01T12:34:59.272Z,96808.81
2023-04-01T12:36:36.691Z,96821.50
2023-04-01T12:38:14.954Z,96834.56
2023-04-01T12:39:37.619Z,96829.44
2023-04-01T12:41:08.989Z,96825.72
2023-04-01T12:42:50.717Z,96836.97
2023-04-01T12:44:31.353Z,96824.69
2023-04-01T12:45:46.692Z,96818.75
2023-04-01T12:47:18.014Z,96819.50
2023-04-01T12:48:52.979Z,96821.81
2023-04-01T12:50:25.203Z,96828.44
2023-04-01T12:51:59.202Z,96824.97
2023-04-01T12:53:18.001Z,96823.63
2023-04-01T12:54:39.115Z,96820.38
2023-04-01T12:55:44.271Z,96817.53
2023-04-01T12:57:24.530Z,96821.19
2023-04-01T12:59:16.535Z,96815.63
2023-04-01T13:00:58.201Z,96817.00
2023-04-01T13:02:08.169Z,96815.28
2023-04-01T13:03:43.361Z,96804.62
2023-04-01T13:05:04.730Z,96821.72
2023-04-01T13:06:26.116Z,96809.91
2023-04-01T13:07:44.080Z,96809.50
2023-04-01T13:09:25.013Z,96806.28
2023-04-01T13:10:44.008Z,96793.97
2023-04-01T13:12:08.800Z,96813.88
2023-04-01T13:13:14.509Z,96803.19
2023-04-01T13:14:35.606Z,96810.69
2023-04-01T13:15:48.830Z,96806.13
2023-04-01T13:17:07.706Z,96806.22
2023-04-01T13:18:13.562Z,96812.72
2023-04-01T13:19:27.500Z,96808.97
2023-04-01T13:20:42.002Z,96811.31
2023-04-01T13:21:52.705Z,96811.38
2023-04-01T13:23:14.512Z,96819.00
2023-04-01T13:24:35.659Z,96805.56
2023-04-01T13:25:59.249Z,96815.37
2023-04-01T13:27:27.689Z,96807.13
2023-04-01T13:28:39.135Z,96814.03
2023-04-01T13:29:45.590Z,96806.47
2023-04-01T13:31:33.096Z,96818.13
2023-04-01T13:33:01.370Z,96817.25
2023-04-01T13:34:07.025Z,96810.97
2023-04-01T13:35:19.948Z,96819.69
2023-04-01T13:36:37.798Z,96821.06
2023-04-01T13:38:13.770Z,96827.44
2023-04-01T13:39:26.430Z,96820.09
2023-04-01T13:40:36.837Z,96832.34
2023-04-01T13:41:39.628Z,96836.50
2023-04-01T13:43:01.105Z,96837.31
2023-04-01T13:44:11.144Z,96837.72
2023-04-01T13:45:25.010Z,96848.69
2023-04-01T13:46:39.772Z,96840.19
2023-04-01T13:48:13.540Z,96841.12
2023-04-01T13:49:36.496Z,96849.19
2023-04-01T13:51:04.001Z,96850.03
2023-04-01T13:52:27.684Z,96849.44
2023-04-01T13:53:51.798Z,96860.09
2023-04-01T13:55:22.295Z,96863.69
2023-04-01T13:56:52.137Z,96869.09
2023-04-01T13:58:25.333Z,96857.28
2023-04-01T14:00:01.395Z,96852.53
2023-04-01T14:01:16.581Z,96859.13
2023-04-01T14:02:35.917Z,96858.28
2023-04-01T14:04:00.771Z,96853.81
2023-04-01T14:05:32.498Z,96847.53
2023-04-01T14:06:58.738Z,96848.62
2023-04-01T14:08:10.601Z,96842.84
2023-04-01T14:09:29.890Z,96846.16
2023-04-01T14:10:54.339Z,96841.25
2023-04-01T14:12:10.663Z,96842.22
2023-04-01T14:13:19.993Z,96840.50
2023-04-01T14:15:06.204Z,96838.66
2023-04-01T14:16:29.899Z,96834.03
2023-04-01T14:17:37.232Z,96831.66
2023-04-01T14:18:52.576Z,96829.28
2023-04-01T14:20:07.781Z,96832.00
2023-04-01T14:21:42.770Z,96823.37
2023-04-01T14:23:17.200Z,96824.72
2023-04-01T14:24:42.117Z,96823.94
2023-04-01T14:26:08.485Z,96826.25
2023-04-01T14:27:49.894Z,96828.97
2023-04-01T14:29:09.349Z,96815.06
2023-04-01T14:30:36.972Z,96817.63
2023-04-01T14:31:52.141Z,96810.69
2023-04-01T14:33:04.133Z,96819.59
2023-04-01T14:34:12.893Z,96808.25
2023-04-01T14:35:53.489Z,96805.47
2023-04-01T14:37:25.518Z,96812.19